Time;durP1;ratioP1;P1;durP2;ratioP2;P2;SDS_P1;SDS_P2;PMS_P1;PMS_P2;Temp;Humidity;BMP_temperature;BMP_pressure;BME280_temperature;BME280_humidity;BME280_pressure;Samples;Min_cycle;Max_cycle;Signal;HPM_P1;HPM_P2
2022/02/26 00:02:04;;;;;;;9.83;2.30;;;4.50;97.30;;;;;;5060553;28;20209;-80
2022/02/26 00:04:29;;;;;;;16.20;3.27;;;4.50;97.30;;;;;;5060900;28;20564;-80
2022/02/26 00:06:55;;;;;;;11.43;2.70;;;4.50;97.30;;;;;;5061838;28;20176;-80
2022/02/26 00:09:20;;;;;;;11.00;2.63;;;4.50;97.30;;;;;;5062274;28;20176;-79
2022/02/26 00:11:46;;;;;;;9.30;2.50;;;4.50;97.30;;;;;;5063912;28;20226;-80
2022/02/26 00:14:11;;;;;;;15.20;2.60;;;4.50;97.30;;;;;;5064816;28;20175;-80
2022/02/26 00:16:37;;;;;;;9.03;3.50;;;4.50;97.30;;;;;;5082559;28;20176;-80
2022/02/26 00:19:03;;;;;;;17.93;3.00;;;4.40;97.30;;;;;;5081622;28;20658;-80
2022/02/26 00:21:29;;;;;;;14.57;3.10;;;4.40;97.30;;;;;;5082665;28;20179;-79
2022/02/26 00:23:54;;;;;;;12.47;2.63;;;4.40;97.30;;;;;;5063040;28;20468;-80
2022/02/26 00:26:22;;;;;;;24.90;4.10;;;4.40;97.30;;;;;;5063424;28;20175;-80
2022/02/26 00:28:48;;;;;;;5.10;2.23;;;4.30;97.30;;;;;;5061216;28;20185;-79
2022/02/26 00:31:15;;;;;;;10.47;2.83;;;4.30;97.30;;;;;;5062081;28;20448;-79
2022/02/26 00:33:41;;;;;;;15.40;2.03;;;4.30;97.30;;;;;;5080973;28;21026;-79
2022/02/26 00:36:07;;;;;;;30.40;3.67;;;4.30;97.30;;;;;;5063675;28;20425;-80
2022/02/26 00:38:32;;;;;;;26.03;2.90;;;4.20;97.30;;;;;;5082514;28;20171;-80
2022/02/26 00:40:58;;;;;;;18.67;2.90;;;4.20;97.30;;;;;;5064366;28;20197;-81
2022/02/26 00:43:24;;;;;;;10.87;2.80;;;4.20;97.30;;;;;;5064399;28;20230;-81
2022/02/26 00:45:50;;;;;;;7.27;2.43;;;4.10;97.30;;;;;;5064417;28;20175;-80
2022/02/26 00:48:15;;;;;;;11.30;2.07;;;4.10;97.30;;;;;;5064949;28;20792;-81
2022/02/26 00:50:41;;;;;;;6.67;1.97;;;4.10;97.30;;;;;;5064632;28;20238;-80
2022/02/26 00:53:06;;;;;;;11.50;2.77;;;4.00;97.30;;;;;;5082581;28;20199;-80
2022/02/26 00:55:32;;;;;;;13.37;2.83;;;4.00;97.30;;;;;;5064738;28;20266;-80
2022/02/26 00:58:00;;;;;;;17.93;2.87;;;3.90;97.30;;;;;;5064229;28;20175;-80
2022/02/26 01:00:25;;;;;;;12.30;2.23;;;3.90;97.30;;;;;;5064188;28;20244;-80
2022/02/26 01:02:51;;;;;;;13.37;2.30;;;3.90;97.30;;;;;;5064290;28;20537;-80
2022/02/26 01:05:16;;;;;;;11.70;2.87;;;3.90;97.30;;;;;;5063676;28;20183;-80
2022/02/26 01:07:42;;;;;;;11.30;2.60;;;3.80;97.30;;;;;;5063567;28;20210;-80
2022/02/26 01:10:08;;;;;;;11.97;2.47;;;3.80;97.30;;;;;;5063719;28;20190;-81
2022/02/26 01:12:34;;;;;;;11.47;2.80;;;3.80;97.30;;;;;;5062943;28;20231;-80
2022/02/26 01:15:03;;;;;;;21.87;2.93;;;3.80;97.30;;;;;;5063767;28;20421;-80
2022/02/26 01:17:28;;;;;;;12.40;2.60;;;3.80;97.30;;;;;;5063507;28;20177;-80
2022/02/26 01:19:54;;;;;;;20.00;3.03;;;3.80;97.30;;;;;;5062316;28;20449;-80
2022/02/26 01:22:19;;;;;;;17.07;2.67;;;3.80;97.30;;;;;;5063464;28;20222;-80
2022/02/26 01:24:45;;;;;;;17.57;3.97;;;3.70;97.30;;;;;;5062791;28;20709;-80
2022/02/26 01:27:11;;;;;;;14.00;2.53;;;3.70;97.30;;;;;;5062908;28;20186;-80
2022/02/26 01:29:36;;;;;;;9.17;3.10;;;3.70;97.30;;;;;;5058663;28;20172;-81
2022/02/26 01:32:03;;;;;;;13.60;3.53;;;3.70;97.30;;;;;;5078222;28;20191;-80
2022/02/26 01:34:29;;;;;;;20.97;3.20;;;3.70;97.30;;;;;;5059833;28;20199;-80
2022/02/26 01:36:54;;;;;;;11.97;2.70;;;3.70;97.30;;;;;;5063485;28;20425;-80
2022/02/26 01:39:24;;;;;;;8.77;2.80;;;3.70;97.30;;;;;;5063681;28;20177;-80
2022/02/26 01:41:52;;;;;;;9.03;2.27;;;3.70;97.30;;;;;;5063612;28;20707;-79
2022/02/26 01:44:17;;;;;;;10.87;3.80;;;3.60;97.30;;;;;;5063639;28;20446;-80
2022/02/26 01:46:43;;;;;;;14.10;2.67;;;3.70;97.30;;;;;;5081398;28;20413;-80
2022/02/26 01:49:08;;;;;;;21.80;3.13;;;3.60;97.30;;;;;;5062672;28;20171;-80
2022/02/26 01:51:34;;;;;;;16.77;3.43;;;3.60;97.30;;;;;;5063212;28;20206;-80
2022/02/26 01:54:00;;;;;;;10.10;2.23;;;3.60;97.30;;;;;;5063011;28;20201;-81
2022/02/26 01:56:26;;;;;;;8.63;2.70;;;3.60;97.30;;;;;;5063029;28;20190;-81
2022/02/26 01:58:51;;;;;;;6.10;2.47;;;3.60;97.30;;;;;;5063086;28;20183;-80
2022/02/26 02:01:17;;;;;;;8.30;2.53;;;3.60;97.30;;;;;;5062417;28;20416;-81
2022/02/26 02:03:42;;;;;;;13.10;2.57;;;3.60;97.30;;;;;;5080260;28;20203;-80
2022/02/26 02:06:11;;;;;;;19.10;2.50;;;3.60;97.30;;;;;;5062523;28;20182;-81
2022/02/26 02:08:37;;;;;;;10.50;2.50;;;3.60;97.30;;;;;;5062376;28;20700;-80
2022/02/26 02:11:02;;;;;;;17.30;3.40;;;3.50;97.30;;;;;;5062953;28;21000;-80
2022/02/26 02:13:28;;;;;;;11.57;2.50;;;3.50;97.30;;;;;;5062340;28;20465;-80
2022/02/26 02:15:54;;;;;;;22.97;3.33;;;3.50;97.30;;;;;;5080075;28;20191;-81
2022/02/26 02:18:20;;;;;;;7.70;2.60;;;3.50;97.30;;;;;;5062092;28;20250;-80
2022/02/26 02:20:46;;;;;;;7.40;2.90;;;3.50;97.30;;;;;;5062108;28;20457;-80
2022/02/26 02:23:12;;;;;;;7.90;2.77;;;3.50;97.30;;;;;;5062320;28;20237;-79
2022/02/26 02:25:38;;;;;;;13.83;2.80;;;3.40;97.30;;;;;;5061613;28;20401;-81
2022/02/26 02:28:06;;;;;;;18.27;2.20;;;3.40;97.30;;;;;;5062685;28;20189;-80
2022/02/26 02:30:32;;;;;;;27.27;3.37;;;3.40;97.30;;;;;;5062247;28;20829;-80
2022/02/26 02:32:58;;;;;;;12.50;2.10;;;3.40;97.30;;;;;;5062822;28;20441;-80
2022/02/26 02:35:30;;;;;;;4.30;1.97;;;3.40;97.30;;;;;;5060369;28;20525;-80
2022/02/26 02:37:57;;;;;;;9.03;1.93;;;3.40;97.30;;;;;;5062850;28;20422;-80
2022/02/26 02:40:24;;;;;;;36.17;4.73;;;3.30;97.30;;;;;;5062434;28;20931;-80
2022/02/26 02:42:51;;;;;;;17.17;2.60;;;3.30;97.30;;;;;;5062577;28;20465;-80
2022/02/26 02:45:18;;;;;;;7.57;3.00;;;3.30;97.30;;;;;;5061756;28;20425;-80
2022/02/26 02:47:44;;;;;;;16.90;2.37;;;3.30;97.30;;;;;;5062819;28;20418;-80
2022/02/26 02:50:09;;;;;;;15.90;2.77;;;3.40;97.30;;;;;;5062217;28;20452;-80
2022/02/26 02:52:35;;;;;;;9.60;2.33;;;3.40;97.30;;;;;;5061845;28;20438;-80
2022/02/26 02:55:01;;;;;;;8.80;2.40;;;3.40;97.30;;;;;;5062772;28;20640;-80
2022/02/26 02:57:26;;;;;;;13.70;2.37;;;3.40;97.30;;;;;;5061655;28;20186;-80
2022/02/26 02:59:52;;;;;;;9.17;2.40;;;3.40;97.30;;;;;;5061137;28;20167;-80
2022/02/26 03:02:18;;;;;;;11.13;2.77;;;3.40;97.30;;;;;;5061802;28;20190;-80
2022/02/26 03:04:43;;;;;;;8.73;2.33;;;3.40;97.30;;;;;;5061714;28;20570;-80
2022/02/26 03:07:09;;;;;;;6.10;2.20;;;3.40;97.30;;;;;;5061929;28;20190;-80
2022/02/26 03:09:35;;;;;;;12.77;3.00;;;3.40;97.30;;;;;;5061588;28;20172;-80
2022/02/26 03:12:00;;;;;;;11.83;2.57;;;3.40;97.30;;;;;;5061700;28;20230;-80
2022/02/26 03:14:26;;;;;;;13.67;2.80;;;3.50;97.30;;;;;;5062402;28;20212;-80
2022/02/26 03:16:51;;;;;;;14.17;3.00;;;3.50;97.30;;;;;;5062119;28;20935;-80
2022/02/26 03:19:17;;;;;;;14.37;2.50;;;3.50;97.30;;;;;;5061603;28;20187;-80
2022/02/26 03:21:42;;;;;;;6.77;2.10;;;3.50;97.30;;;;;;5062581;28;20637;-80
2022/02/26 03:24:12;;;;;;;19.20;3.43;;;3.50;97.30;;;;;;5062400;28;20699;-78
2022/02/26 03:26:38;;;;;;;18.07;2.40;;;3.50;97.30;;;;;;5063393;28;20178;-80
2022/02/26 03:29:07;;;;;;;8.37;2.57;;;3.50;97.30;;;;;;5063430;28;20484;-81
2022/02/26 03:31:33;;;;;;;18.20;3.43;;;3.50;97.30;;;;;;5062809;28;20508;-80
2022/02/26 03:33:59;;;;;;;7.80;3.23;;;3.50;97.30;;;;;;5062708;28;20486;-80
2022/02/26 03:36:27;;;;;;;6.43;2.03;;;3.50;97.30;;;;;;5081030;28;20625;-80
2022/02/26 03:38:53;;;;;;;10.20;2.60;;;3.50;97.30;;;;;;5061812;28;20226;-81
2022/02/26 03:41:19;;;;;;;11.77;2.50;;;3.50;97.30;;;;;;5080757;28;20421;-81
2022/02/26 03:43:46;;;;;;;15.40;2.30;;;3.50;97.30;;;;;;5065382;28;20468;-80
2022/02/26 03:46:11;;;;;;;12.50;3.20;;;3.50;97.30;;;;;;5064677;28;20586;-80
2022/02/26 03:48:37;;;;;;;4.40;2.40;;;3.50;97.30;;;;;;5064426;28;20417;-81
2022/02/26 03:51:05;;;;;;;10.20;2.53;;;3.50;97.30;;;;;;5064998;28;20206;-80
2022/02/26 03:53:32;;;;;;;14.73;2.70;;;3.50;97.30;;;;;;5082960;28;20201;-80
2022/02/26 03:55:59;;;;;;;14.03;2.50;;;3.50;97.30;;;;;;5052609;28;20425;-78
2022/02/26 03:58:25;;;;;;;16.50;3.00;;;3.50;97.30;;;;;;5051655;28;20835;-78
2022/02/26 04:00:50;;;;;;;10.80;3.07;;;3.50;97.30;;;;;;5051420;28;20418;-78
2022/02/26 04:03:16;;;;;;;12.93;2.43;;;3.50;97.30;;;;;;5051441;28;20997;-79
2022/02/26 04:05:42;;;;;;;20.23;2.63;;;3.50;97.30;;;;;;5068905;28;20171;-78
2022/02/26 04:08:07;;;;;;;7.77;2.40;;;3.50;97.30;;;;;;5050782;28;20207;-78
2022/02/26 04:10:33;;;;;;;8.93;2.50;;;3.50;97.30;;;;;;5068744;28;20440;-77
2022/02/26 04:12:59;;;;;;;10.63;3.10;;;3.50;97.30;;;;;;5054020;28;20275;-78
2022/02/26 04:15:24;;;;;;;10.33;2.20;;;3.50;97.30;;;;;;5054197;28;20182;-78
2022/02/26 04:17:50;;;;;;;9.80;2.83;;;3.50;97.30;;;;;;5071800;28;20229;-78
2022/02/26 04:20:16;;;;;;;19.47;3.40;;;3.50;97.30;;;;;;5054324;28;20278;-78
2022/02/26 04:22:41;;;;;;;9.43;2.40;;;3.50;97.30;;;;;;5054508;28;20207;-78
2022/02/26 04:25:08;;;;;;;6.10;2.50;;;3.40;97.30;;;;;;5054625;28;20614;-77
2022/02/26 04:27:34;;;;;;;5.57;2.10;;;3.40;97.30;;;;;;5054569;28;20175;-78
2022/02/26 04:29:59;;;;;;;13.10;2.63;;;3.40;97.30;;;;;;5054451;28;20660;-78
2022/02/26 04:32:25;;;;;;;15.40;3.20;;;3.40;97.30;;;;;;5054109;28;20958;-77
2022/02/26 04:34:50;;;;;;;10.60;2.47;;;3.40;97.30;;;;;;5050630;28;20172;-77
2022/02/26 04:37:20;;;;;;;8.03;2.63;;;3.40;97.30;;;;;;5054380;28;20228;-78
2022/02/26 04:39:46;;;;;;;9.23;2.60;;;3.40;97.30;;;;;;5054459;28;20201;-78
2022/02/26 04:42:12;;;;;;;16.20;3.10;;;3.40;97.30;;;;;;5055186;28;20433;-78
2022/02/26 04:44:37;;;;;;;8.50;2.33;;;3.30;97.30;;;;;;5072823;28;20457;-78
2022/02/26 04:47:03;;;;;;;12.00;2.90;;;3.30;97.30;;;;;;5054968;28;20175;-78
2022/02/26 04:49:29;;;;;;;12.63;2.83;;;3.30;97.30;;;;;;5054017;28;20198;-78
2022/02/26 04:51:54;;;;;;;11.57;2.87;;;3.40;97.30;;;;;;5053456;28;20429;-78
2022/02/26 04:54:20;;;;;;;13.90;3.83;;;3.30;97.30;;;;;;5053524;28;20179;-79
2022/02/26 04:56:46;;;;;;;21.10;3.20;;;3.40;97.30;;;;;;5071403;28;20177;-79
2022/02/26 04:59:11;;;;;;;7.60;2.40;;;3.40;97.30;;;;;;5053357;28;20171;-78
2022/02/26 05:01:37;;;;;;;9.83;2.30;;;3.40;97.30;;;;;;5053341;28;20225;-78
2022/02/26 05:04:02;;;;;;;14.40;2.50;;;3.40;97.30;;;;;;5053468;28;20203;-78
2022/02/26 05:06:28;;;;;;;14.27;2.83;;;3.50;97.30;;;;;;5053041;28;20175;-78
2022/02/26 05:08:53;;;;;;;27.13;2.93;;;3.50;97.30;;;;;;5053307;28;20179;-78
2022/02/26 05:11:19;;;;;;;10.67;2.20;;;3.50;97.30;;;;;;5053189;28;20171;-79
2022/02/26 05:13:45;;;;;;;13.53;2.67;;;3.50;97.30;;;;;;5049926;28;20788;-78
2022/02/26 05:16:10;;;;;;;8.93;2.83;;;3.50;97.30;;;;;;5050227;28;20184;-77
2022/02/26 05:18:37;;;;;;;10.03;2.60;;;3.50;97.30;;;;;;5051688;28;20221;-78
2022/02/26 05:21:02;;;;;;;11.20;3.43;;;3.50;97.30;;;;;;5050302;28;20176;-78
2022/02/26 05:23:28;;;;;;;21.70;2.80;;;3.50;97.30;;;;;;5048874;28;20458;-78
2022/02/26 05:25:53;;;;;;;11.67;2.40;;;3.60;97.30;;;;;;5049528;28;20228;-78
2022/02/26 05:28:19;;;;;;;22.10;3.47;;;3.60;97.30;;;;;;5049415;28;20233;-78
2022/02/26 05:30:44;;;;;;;15.03;2.47;;;3.60;97.30;;;;;;5049494;28;20457;-78
2022/02/26 05:33:10;;;;;;;12.70;2.50;;;3.60;97.30;;;;;;5049739;28;20562;-78
2022/02/26 05:35:36;;;;;;;8.97;2.60;;;3.70;97.30;;;;;;5035434;28;20184;-77
2022/02/26 05:38:02;;;;;;;14.77;4.17;;;3.70;97.30;;;;;;5044725;28;20183;-78
2022/02/26 05:40:27;;;;;;;7.70;2.30;;;3.70;97.30;;;;;;5049459;28;20266;-78
2022/02/26 05:42:53;;;;;;;25.30;4.70;;;3.80;97.30;;;;;;5048974;28;20860;-77
2022/02/26 05:45:19;;;;;;;9.70;2.57;;;3.80;97.30;;;;;;5049243;28;20179;-77
2022/02/26 05:47:44;;;;;;;12.10;3.17;;;3.80;97.30;;;;;;5049332;28;20835;-77
2022/02/26 05:50:10;;;;;;;10.03;2.83;;;3.80;97.30;;;;;;5049345;28;20177;-78
2022/02/26 05:52:36;;;;;;;17.67;4.27;;;3.80;97.30;;;;;;5048771;28;20203;-78
2022/02/26 05:55:02;;;;;;;9.40;3.10;;;3.80;97.30;;;;;;5048973;28;20658;-77
2022/02/26 05:57:28;;;;;;;18.73;2.73;;;3.90;97.30;;;;;;5048721;28;20625;-78
2022/02/26 05:59:53;;;;;;;12.20;3.73;;;3.90;97.30;;;;;;5049144;28;20414;-78
2022/02/26 06:02:19;;;;;;;23.50;3.90;;;3.90;97.30;;;;;;5048863;28;20200;-78
2022/02/26 06:04:44;;;;;;;9.03;2.80;;;3.90;97.30;;;;;;5049196;28;20243;-78
2022/02/26 06:07:10;;;;;;;14.43;4.03;;;3.90;97.30;;;;;;5049019;28;20176;-78
2022/02/26 06:09:36;;;;;;;23.13;3.43;;;3.90;97.30;;;;;;5048941;28;20662;-78
2022/02/26 06:12:02;;;;;;;13.13;2.83;;;3.90;97.30;;;;;;5048887;28;20300;-78
2022/02/26 06:14:28;;;;;;;13.73;3.10;;;3.90;97.30;;;;;;5048752;28;20184;-78
2022/02/26 06:16:53;;;;;;;8.50;2.63;;;3.90;97.30;;;;;;5039521;28;20418;-78
2022/02/26 06:19:19;;;;;;;19.70;2.67;;;3.90;97.30;;;;;;5043435;28;20711;-77
2022/02/26 06:21:47;;;;;;;31.50;3.30;;;3.90;97.30;;;;;;5028628;28;20271;-78
2022/02/26 06:24:14;;;;;;;12.30;2.90;;;3.90;97.30;;;;;;5040407;28;20205;-78
2022/02/26 06:26:39;;;;;;;20.50;3.37;;;3.90;97.30;;;;;;5048565;28;20438;-78
2022/02/26 06:29:05;;;;;;;12.37;3.13;;;3.90;97.30;;;;;;5048336;28;20414;-78
2022/02/26 06:31:30;;;;;;;13.73;3.07;;;3.90;97.30;;;;;;5048274;28;20551;-78
2022/02/26 06:33:56;;;;;;;20.57;2.90;;;3.90;97.30;;;;;;5048208;28;20386;-77
2022/02/26 06:36:21;;;;;;;13.50;2.90;;;3.90;97.30;;;;;;5048302;28;20183;-78
2022/02/26 06:38:47;;;;;;;12.33;3.70;;;3.90;97.30;;;;;;5048206;28;20187;-77
2022/02/26 06:41:12;;;;;;;17.43;3.57;;;3.90;97.30;;;;;;5049934;28;20671;-77
2022/02/26 06:43:38;;;;;;;7.47;2.77;;;4.00;97.30;;;;;;5048205;28;20207;-77
2022/02/26 06:46:08;;;;;;;7.10;2.60;;;4.00;97.30;;;;;;5048052;28;20168;-77
2022/02/26 06:48:34;;;;;;;12.27;2.73;;;4.00;97.30;;;;;;5049445;28;20399;-77
2022/02/26 06:51:00;;;;;;;12.17;2.90;;;4.00;97.30;;;;;;5049365;28;20900;-77
2022/02/26 06:53:26;;;;;;;10.03;2.63;;;4.00;97.30;;;;;;5047996;28;20442;-77
2022/02/26 06:55:51;;;;;;;9.73;2.70;;;4.00;97.30;;;;;;5048082;28;20236;-77
2022/02/26 06:58:17;;;;;;;19.90;4.07;;;4.00;97.30;;;;;;5048013;28;20187;-77
2022/02/26 07:00:43;;;;;;;19.70;3.70;;;4.00;97.30;;;;;;5048405;28;20187;-78
2022/02/26 07:03:08;;;;;;;11.53;3.20;;;4.00;97.30;;;;;;5048431;28;20298;-77
2022/02/26 07:05:34;;;;;;;11.17;4.03;;;4.00;97.30;;;;;;5048440;28;20180;-77
2022/02/26 07:07:59;;;;;;;12.83;3.00;;;4.00;97.30;;;;;;5048533;28;20550;-78
2022/02/26 07:10:25;;;;;;;10.27;3.17;;;4.00;97.30;;;;;;5049290;28;20204;-78
2022/02/26 07:12:50;;;;;;;11.87;3.40;;;4.00;97.30;;;;;;5047665;28;20242;-78
2022/02/26 07:15:16;;;;;;;21.10;2.93;;;4.00;97.30;;;;;;5049245;28;20184;-78
2022/02/26 07:17:42;;;;;;;8.47;3.87;;;4.00;97.30;;;;;;5047599;28;20270;-78
2022/02/26 07:20:09;;;;;;;14.60;3.10;;;4.00;97.30;;;;;;5047979;28;20180;-78
2022/02/26 07:22:34;;;;;;;10.27;3.17;;;4.00;97.30;;;;;;5047416;28;20199;-77
2022/02/26 07:25:00;;;;;;;14.33;3.00;;;4.10;97.30;;;;;;5047672;28;20476;-77
2022/02/26 07:27:25;;;;;;;12.87;2.93;;;4.10;97.30;;;;;;5049324;28;20168;-77
2022/02/26 07:29:51;;;;;;;10.50;3.10;;;4.10;97.30;;;;;;5047778;28;20187;-77
2022/02/26 07:32:16;;;;;;;14.23;3.73;;;4.10;97.30;;;;;;5047811;28;20199;-78
2022/02/26 07:34:42;;;;;;;21.00;3.83;;;4.10;97.30;;;;;;5047893;28;20237;-78
2022/02/26 07:37:08;;;;;;;27.17;4.63;;;4.10;97.30;;;;;;5047783;28;20180;-78
2022/02/26 07:39:33;;;;;;;9.30;3.73;;;4.10;97.30;;;;;;5047757;28;20176;-78
2022/02/26 07:41:59;;;;;;;15.97;3.40;;;4.20;97.30;;;;;;5048800;28;20198;-78
2022/02/26 07:44:24;;;;;;;11.40;3.40;;;4.20;97.30;;;;;;5048894;28;20235;-78
2022/02/26 07:46:50;;;;;;;14.80;3.00;;;4.20;97.30;;;;;;5049487;28;20176;-78
2022/02/26 07:49:16;;;;;;;21.93;4.40;;;4.20;97.30;;;;;;5051623;28;20528;-78
2022/02/26 07:51:41;;;;;;;17.07;4.33;;;4.30;97.30;;;;;;5052123;28;20178;-78
2022/02/26 07:54:07;;;;;;;12.50;3.80;;;4.30;97.30;;;;;;5051846;28;20198;-77
2022/02/26 07:56:32;;;;;;;14.20;4.20;;;4.30;97.30;;;;;;5051764;28;20190;-78
2022/02/26 07:58:58;;;;;;;21.17;4.07;;;4.30;97.30;;;;;;5051289;28;20527;-78
2022/02/26 08:01:24;;;;;;;26.27;4.53;;;4.30;97.30;;;;;;5051453;28;20271;-77
2022/02/26 08:03:50;;;;;;;15.50;3.10;;;4.40;97.30;;;;;;5050946;28;20204;-77
2022/02/26 08:06:16;;;;;;;13.10;3.30;;;4.40;97.30;;;;;;5051367;28;20263;-77
2022/02/26 08:08:42;;;;;;;13.83;3.53;;;4.40;97.30;;;;;;5050832;28;20513;-77
2022/02/26 08:11:07;;;;;;;23.40;4.10;;;4.40;97.30;;;;;;5051438;28;20544;-78
2022/02/26 08:13:33;;;;;;;8.60;3.13;;;4.40;97.30;;;;;;5050989;28;20297;-78
2022/02/26 08:15:59;;;;;;;20.27;3.27;;;4.40;97.30;;;;;;5051138;28;20180;-77
2022/02/26 08:18:24;;;;;;;17.57;3.53;;;4.50;97.30;;;;;;5050876;28;20180;-77
2022/02/26 08:20:50;;;;;;;19.67;3.30;;;4.50;97.30;;;;;;5051039;28;20907;-78
2022/02/26 08:23:15;;;;;;;30.40;3.90;;;4.50;97.30;;;;;;5045447;28;20601;-80
2022/02/26 08:25:41;;;;;;;16.03;3.50;;;4.50;97.30;;;;;;5032307;28;20177;-78
2022/02/26 08:28:07;;;;;;;14.03;3.30;;;4.60;97.30;;;;;;5030700;28;20192;-78
2022/02/26 08:30:32;;;;;;;11.90;3.13;;;4.60;97.30;;;;;;5030900;28;20264;-77
2022/02/26 08:32:58;;;;;;;12.17;2.90;;;4.60;97.30;;;;;;5030489;28;20227;-78
2022/02/26 08:35:25;;;;;;;14.37;3.30;;;4.60;97.30;;;;;;5043133;28;20203;-77
2022/02/26 08:37:51;;;;;;;16.57;3.10;;;4.70;97.30;;;;;;5050279;28;20215;-77
2022/02/26 08:40:17;;;;;;;17.97;3.57;;;4.70;97.30;;;;;;5050717;28;20468;-78
2022/02/26 08:42:43;;;;;;;9.30;3.20;;;4.70;97.30;;;;;;5050785;28;20532;-78
2022/02/26 08:45:09;;;;;;;14.83;3.27;;;4.70;97.30;;;;;;5050802;28;20410;-78
2022/02/26 08:47:35;;;;;;;8.50;3.57;;;4.80;97.30;;;;;;5050512;28;20761;-78
2022/02/26 08:50:04;;;;;;;15.67;3.40;;;4.80;97.30;;;;;;5050420;28;20924;-78
2022/02/26 08:52:29;;;;;;;19.37;4.00;;;4.80;97.30;;;;;;5050192;28;20669;-78
2022/02/26 08:54:55;;;;;;;28.20;4.03;;;4.90;97.30;;;;;;5050240;28;20425;-78
2022/02/26 08:57:21;;;;;;;33.70;5.77;;;4.90;97.30;;;;;;5051798;28;20554;-78
2022/02/26 08:59:47;;;;;;;20.17;3.07;;;4.90;97.30;;;;;;5050059;28;20184;-78
2022/02/26 09:02:12;;;;;;;13.27;3.23;;;4.90;97.30;;;;;;5050065;28;20553;-78
2022/02/26 09:04:38;;;;;;;15.27;3.10;;;4.90;97.30;;;;;;5049725;28;20204;-78
2022/02/26 09:07:05;;;;;;;11.83;3.30;;;4.90;97.30;;;;;;5050265;28;20271;-78
2022/02/26 09:09:31;;;;;;;15.10;4.40;;;5.00;97.30;;;;;;5051060;28;20418;-80
2022/02/26 09:11:57;;;;;;;14.97;3.53;;;5.00;97.30;;;;;;5049723;28;20868;-78
2022/02/26 09:14:23;;;;;;;10.60;3.10;;;5.00;97.30;;;;;;5049969;28;20427;-79
2022/02/26 09:16:49;;;;;;;29.37;5.17;;;5.10;97.30;;;;;;5049919;28;20445;-78
2022/02/26 09:19:14;;;;;;;20.73;4.50;;;5.10;97.30;;;;;;5051070;28;20410;-79
2022/02/26 09:21:40;;;;;;;9.90;2.93;;;5.10;97.30;;;;;;5049637;28;20176;-78
2022/02/26 09:24:06;;;;;;;22.23;3.60;;;5.20;97.30;;;;;;5049583;28;20207;-78
2022/02/26 09:26:32;;;;;;;13.63;3.60;;;5.20;97.30;;;;;;5051380;28;20198;-78
2022/02/26 09:28:57;;;;;;;15.00;3.23;;;5.20;97.30;;;;;;5049589;28;20414;-78
2022/02/26 09:31:23;;;;;;;28.40;3.90;;;5.30;97.30;;;;;;5049670;28;20191;-78
2022/02/26 09:33:49;;;;;;;19.30;3.83;;;5.30;97.30;;;;;;5048398;28;20199;-78
2022/02/26 09:36:15;;;;;;;14.27;3.40;;;5.30;97.30;;;;;;5036715;28;20431;-78
2022/02/26 09:38:41;;;;;;;15.30;4.30;;;5.40;97.30;;;;;;5037271;28;20192;-78
2022/02/26 09:41:08;;;;;;;24.77;4.37;;;5.40;97.30;;;;;;5046045;28;20191;-78
2022/02/26 09:43:34;;;;;;;12.30;3.50;;;5.40;97.30;;;;;;5049589;28;20791;-78
2022/02/26 09:46:03;;;;;;;15.00;4.07;;;5.50;97.30;;;;;;5030865;28;20805;-78
2022/02/26 09:48:29;;;;;;;12.07;3.20;;;5.50;97.30;;;;;;5029554;28;20423;-78
2022/02/26 09:50:54;;;;;;;11.20;3.40;;;5.60;97.30;;;;;;5030371;28;20498;-78
2022/02/26 09:53:21;;;;;;;20.63;3.87;;;5.60;97.30;;;;;;5039425;28;20546;-78
2022/02/26 09:55:47;;;;;;;14.70;3.57;;;5.70;97.30;;;;;;5049110;28;20617;-78
2022/02/26 09:58:15;;;;;;;11.07;3.80;;;5.60;97.30;;;;;;5049060;28;20422;-77
2022/02/26 10:00:42;;;;;;;14.57;3.57;;;5.60;97.30;;;;;;5049062;28;20493;-78
2022/02/26 10:03:27;;;;;;;11.60;3.63;;;5.60;97.30;;;;;;5047011;28;20508;-78
2022/02/26 10:06:13;;;;;;;9.27;3.07;;;5.60;97.30;;;;;;5047461;28;20422;-78
2022/02/26 10:08:51;;;;;;;15.60;3.50;;;5.60;97.30;;;;;;5048546;28;20505;-78
2022/02/26 10:11:24;;;;;;;12.17;2.77;;;5.70;97.30;;;;;;5050349;28;20426;-78
2022/02/26 10:14:03;;;;;;;8.63;3.40;;;5.80;97.30;;;;;;5045528;28;20469;-77
2022/02/26 10:16:52;;;;;;;8.43;3.13;;;6.00;97.30;;;;;;5043720;28;20427;-78
2022/02/26 10:19:20;;;;;;;18.83;3.80;;;6.00;97.30;;;;;;5047097;28;20446;-78
2022/02/26 10:21:47;;;;;;;7.87;3.50;;;6.00;97.30;;;;;;5047034;28;20813;-77
2022/02/26 10:24:13;;;;;;;15.03;3.60;;;6.00;97.30;;;;;;5045799;28;20469;-78
2022/02/26 10:26:39;;;;;;;16.20;4.37;;;6.00;97.30;;;;;;5047579;28;20415;-78
2022/02/26 10:29:10;;;;;;;12.80;4.30;;;5.90;97.30;;;;;;5048807;28;20949;-78
2022/02/26 10:31:45;;;;;;;17.07;5.73;;;5.90;97.30;;;;;;5048297;28;20442;-79
2022/02/26 10:34:29;;;;;;;7.10;3.70;;;6.00;97.30;;;;;;5047876;28;20824;-77
2022/02/26 10:37:16;;;;;;;14.70;3.77;;;6.20;97.30;;;;;;5048248;28;20414;-78
2022/02/26 10:39:54;;;;;;;8.33;4.07;;;6.30;97.30;;;;;;5048141;28;20472;-78
2022/02/26 10:42:31;;;;;;;16.33;3.77;;;6.20;97.30;;;;;;5049348;28;20516;-78
2022/02/26 10:45:08;;;;;;;10.83;3.50;;;6.20;97.30;;;;;;5047977;28;20837;-79
2022/02/26 10:47:36;;;;;;;21.80;3.90;;;6.10;97.30;;;;;;5049607;28;20407;-78
2022/02/26 10:50:22;;;;;;;15.40;3.87;;;6.10;97.30;;;;;;5049648;28;20843;-79
2022/02/26 10:53:02;;;;;;;14.63;3.70;;;6.10;97.30;;;;;;5048491;28;20450;-78
2022/02/26 10:55:52;;;;;;;15.17;4.23;;;6.10;97.30;;;;;;5048102;28;20439;-78
2022/02/26 10:58:28;;;;;;;20.10;5.27;;;6.30;97.30;;;;;;5048304;28;20509;-78
2022/02/26 11:01:02;;;;;;;13.03;3.80;;;6.50;97.30;;;;;;5048289;28;20945;-78
2022/02/26 11:03:28;;;;;;;10.60;3.07;;;6.70;97.30;;;;;;5047908;28;20736;-78
2022/02/26 11:05:54;;;;;;;19.23;4.10;;;6.80;97.30;;;;;;5047903;28;20496;-78
2022/02/26 11:08:21;;;;;;;15.73;4.97;;;6.80;97.30;;;;;;5047963;28;20271;-78
2022/02/26 11:10:50;;;;;;;18.23;3.97;;;6.80;97.30;;;;;;5047909;28;20472;-78
2022/02/26 11:13:19;;;;;;;12.37;4.20;;;6.70;97.30;;;;;;5047973;28;20842;-78
2022/02/26 11:15:47;;;;;;;11.13;3.83;;;6.70;97.30;;;;;;5048122;28;20525;-78
2022/02/26 11:18:17;;;;;;;10.27;5.30;;;6.90;97.30;;;;;;5048452;28;20418;-78
2022/02/26 11:20:43;;;;;;;13.10;3.40;;;6.90;97.30;;;;;;5048420;28;20426;-77
2022/02/26 11:23:09;;;;;;;14.83;3.40;;;6.90;97.30;;;;;;5052319;28;20466;-78
2022/02/26 11:25:34;;;;;;;18.77;3.20;;;7.00;97.30;;;;;;5052341;28;20205;-78
2022/02/26 11:28:01;;;;;;;15.07;3.50;;;7.00;97.30;;;;;;5052019;28;20532;-78
2022/02/26 11:30:34;;;;;;;13.77;3.63;;;7.00;97.30;;;;;;5051968;28;20574;-79
2022/02/26 11:33:02;;;;;;;11.80;3.50;;;7.00;97.30;;;;;;5051844;28;20434;-78
2022/02/26 11:35:27;;;;;;;11.77;3.40;;;7.00;97.30;;;;;;5038979;28;20431;-78
2022/02/26 11:38:03;;;;;;;16.63;3.40;;;7.00;97.30;;;;;;5032119;28;20426;-79
2022/02/26 11:40:30;;;;;;;11.90;3.47;;;6.90;97.30;;;;;;5031748;28;20191;-78
2022/02/26 11:42:55;;;;;;;15.33;3.80;;;6.90;97.30;;;;;;5031320;28;20447;-78
2022/02/26 11:45:30;;;;;;;13.40;3.70;;;6.80;97.30;;;;;;5048176;28;20805;-78
2022/02/26 11:48:01;;;;;;;8.50;2.93;;;6.80;97.30;;;;;;5052772;28;20225;-78
2022/02/26 11:50:32;;;;;;;7.47;2.57;;;6.80;97.30;;;;;;5051645;28;20551;-78
2022/02/26 11:53:14;;;;;;;13.50;2.77;;;6.80;97.30;;;;;;5051152;28;20466;-78
2022/02/26 11:55:41;;;;;;;9.53;2.70;;;6.70;96.80;;;;;;5051250;28;20418;-78
2022/02/26 11:58:09;;;;;;;12.30;2.90;;;6.80;97.30;;;;;;5051265;28;20437;-78
2022/02/26 12:00:43;;;;;;;14.63;3.33;;;6.80;97.30;;;;;;5051314;28;20414;-78
2022/02/26 12:03:18;;;;;;;10.60;2.17;;;6.80;97.30;;;;;;5051517;28;20458;-79
2022/02/26 12:05:44;;;;;;;8.03;2.37;;;6.80;97.30;;;;;;5051449;28;20422;-78
2022/02/26 12:08:12;;;;;;;4.57;2.53;;;6.80;97.30;;;;;;5052972;28;20410;-79
2022/02/26 12:10:38;;;;;;;14.43;2.80;;;6.80;97.30;;;;;;5051168;28;20453;-79
2022/02/26 12:13:24;;;;;;;8.07;2.93;;;6.90;96.90;;;;;;5051093;28;20665;-78
2022/02/26 12:16:08;;;;;;;8.90;2.43;;;6.90;96.80;;;;;;5051484;28;20792;-78
2022/02/26 12:18:42;;;;;;;9.60;2.20;;;7.00;97.20;;;;;;5051426;28;20433;-79
2022/02/26 12:21:12;;;;;;;8.47;2.70;;;7.20;97.20;;;;;;5050964;28;20418;-79
2022/02/26 12:23:42;;;;;;;17.80;3.30;;;7.30;96.50;;;;;;5050859;28;20760;-79
2022/02/26 12:26:10;;;;;;;9.60;2.67;;;7.30;96.90;;;;;;5050690;28;20422;-78
2022/02/26 12:28:36;;;;;;;12.20;3.87;;;7.30;97.00;;;;;;5052171;28;20545;-78
2022/02/26 12:31:08;;;;;;;8.80;2.43;;;7.30;97.30;;;;;;5050941;28;20426;-78
2022/02/26 12:33:48;;;;;;;7.50;2.10;;;7.20;97.30;;;;;;5050455;28;20430;-78
2022/02/26 12:36:16;;;;;;;9.27;2.20;;;7.20;96.90;;;;;;5031509;28;20427;-78
2022/02/26 12:38:53;;;;;;;10.80;3.47;;;7.10;96.10;;;;;;5030956;28;20419;-78
2022/02/26 12:41:37;;;;;;;7.97;2.03;;;7.10;96.80;;;;;;5030720;28;20419;-79
2022/02/26 12:44:04;;;;;;;5.67;2.10;;;7.10;96.20;;;;;;5036539;28;21005;-78
2022/02/26 12:46:33;;;;;;;11.27;3.87;;;7.10;96.20;;;;;;5050624;28;20414;-84
2022/02/26 12:49:02;;;;;;;12.43;2.57;;;7.20;96.70;;;;;;5052063;28;20976;-83
2022/02/26 12:51:33;;;;;;;10.67;2.87;;;7.20;96.60;;;;;;5052319;28;20430;-83